首页
METAR-TAF:

METAR-TAF

机场 :

杜塞尔多夫机场

杜塞尔多夫, 德国

纬度: 51-18N, 经度: 006-46E, 海拔: 45米

当前天气观测

该预报发布于26分钟前的19:20 UTC
风速15节,风向西南
温度 7°C
湿度 70%
气压 1019 hPa
能见度10公里或以上
少量云层高于3800英尺

METAR: EDDL 181920Z 22015KT 9999 FEW038 07/02 Q1019 NOSIG

时间: 20:46 (19:46 UTC)

预报

该预报发布于2小时和46分钟前的17:00 UTC
预报有效从18日的 18点(UTC)到 19日的 24点(UTC)
风速15节,风向南转西南,有时为25节阵风
能见度10公里或以上
散云层高于3500英尺
短暂存在
从 18日的 18点(UTC)到 18日的 22点(UTC)
风速13节,风向南转西南
短暂存在
从 19日的 00点(UTC)到 19日的 05点(UTC)
风速20节,风向西南,有时为30节阵风
多云层高于2000英尺, 塔状积云.
阵雨
成为
从 19日的 02点(UTC)到 19日的 05点(UTC)
风速15节,风向西,有时为25节阵风
成为
从 19日的 16点(UTC)到 19日的 19点(UTC)
风速10节,风向南转西南

TAF: EDDL 181700Z 1818/1924 21015G25KT 9999 SCT035 TEMPO 1818/1822 21013KT TEMPO 1900/1905 23020G30KT SHRA BKN020TCU BECMG 1902/1905 27015G25KT BECMG 1916/1919 20010KT

超过4000个机场的气象观测和天气预报(METAR&TAF报告)。

可查询的气象台以黄色和红色小点在地图上表示。

将鼠标移到小点上方,可查看气象台名称。

然后点击查看天气观测和预报。

如需切换地图:点击带黑十字的绿色按钮放大地图;点击带横线的绿色按钮缩小地图;或者点击绿色箭头查看邻近地区的地图。


METAR-TAF: